sensor_id;sensor_type;location;lat;lon;timestamp;pressure;altitude;pressure_sealevel;temperature;humidity
11041;BME280;5573;49.592;8.662;2024-01-16T00:00:11;99303.19;;;-1.13;83.20
11041;BME280;5573;49.592;8.662;2024-01-16T00:02:39;99304.16;;;-1.14;82.78
11041;BME280;5573;49.592;8.662;2024-01-16T00:05:08;99311.03;;;-1.13;82.26
11041;BME280;5573;49.592;8.662;2024-01-16T00:07:39;99316.28;;;-1.13;82.18
11041;BME280;5573;49.592;8.662;2024-01-16T00:10:08;99314.19;;;-1.27;82.87
11041;BME280;5573;49.592;8.662;2024-01-16T00:12:35;99314.09;;;-1.17;82.93
11041;BME280;5573;49.592;8.662;2024-01-16T00:15:05;99313.88;;;-1.24;83.14
11041;BME280;5573;49.592;8.662;2024-01-16T00:17:32;99309.41;;;-1.14;82.22
11041;BME280;5573;49.592;8.662;2024-01-16T00:20:00;99313.22;;;-1.08;81.98
11041;BME280;5573;49.592;8.662;2024-01-16T00:22:32;99317.09;;;-1.12;82.83
11041;BME280;5573;49.592;8.662;2024-01-16T00:24:59;99315.97;;;-1.10;82.00
11041;BME280;5573;49.592;8.662;2024-01-16T00:27:27;99318.66;;;-1.19;82.54
11041;BME280;5573;49.592;8.662;2024-01-16T00:29:55;99324.78;;;-1.11;82.18
11041;BME280;5573;49.592;8.662;2024-01-16T00:32:22;99327.16;;;-1.17;82.74
11041;BME280;5573;49.592;8.662;2024-01-16T00:34:50;99320.38;;;-1.28;84.00
11041;BME280;5573;49.592;8.662;2024-01-16T00:37:18;99329.56;;;-1.24;83.99
11041;BME280;5573;49.592;8.662;2024-01-16T00:39:47;99328.78;;;-1.34;83.85
11041;BME280;5573;49.592;8.662;2024-01-16T00:42:15;99327.16;;;-1.35;84.17
11041;BME280;5573;49.592;8.662;2024-01-16T00:44:43;99337.16;;;-1.30;84.03
11041;BME280;5573;49.592;8.662;2024-01-16T00:47:11;99332.38;;;-1.35;84.22
11041;BME280;5573;49.592;8.662;2024-01-16T00:49:39;99333.25;;;-1.44;84.34
11041;BME280;5573;49.592;8.662;2024-01-16T00:52:07;99336.00;;;-1.45;84.94
11041;BME280;5573;49.592;8.662;2024-01-16T00:54:35;99347.34;;;-1.37;84.90
11041;BME280;5573;49.592;8.662;2024-01-16T00:57:04;99334.28;;;-1.37;84.16
11041;BME280;5573;49.592;8.662;2024-01-16T00:59:32;99329.75;;;-1.35;84.48
11041;BME280;5573;49.592;8.662;2024-01-16T01:02:00;99333.44;;;-1.28;83.88
11041;BME280;5573;49.592;8.662;2024-01-16T01:04:28;99336.50;;;-1.15;83.72
11041;BME280;5573;49.592;8.662;2024-01-16T01:06:56;99344.34;;;-1.15;83.41
11041;BME280;5573;49.592;8.662;2024-01-16T01:09:23;99354.47;;;-1.12;83.38
11041;BME280;5573;49.592;8.662;2024-01-16T01:11:51;99358.91;;;-1.12;83.37
11041;BME280;5573;49.592;8.662;2024-01-16T01:14:20;99363.00;;;-1.10;83.01
11041;BME280;5573;49.592;8.662;2024-01-16T01:16:48;99356.31;;;-1.12;83.71
11041;BME280;5573;49.592;8.662;2024-01-16T01:19:16;99365.31;;;-1.07;83.07
11041;BME280;5573;49.592;8.662;2024-01-16T01:21:44;99365.31;;;-1.07;83.30
11041;BME280;5573;49.592;8.662;2024-01-16T01:24:12;99364.28;;;-0.96;83.03
11041;BME280;5573;49.592;8.662;2024-01-16T01:26:42;99362.13;;;-1.01;83.15
11041;BME280;5573;49.592;8.662;2024-01-16T01:29:10;99363.94;;;-1.01;82.82
11041;BME280;5573;49.592;8.662;2024-01-16T01:31:39;99364.06;;;-1.03;83.37
11041;BME280;5573;49.592;8.662;2024-01-16T01:34:07;99370.94;;;-1.02;83.52
11041;BME280;5573;49.592;8.662;2024-01-16T01:36:35;99368.84;;;-1.16;83.74
11041;BME280;5573;49.592;8.662;2024-01-16T01:39:03;99366.66;;;-1.20;84.47
11041;BME280;5573;49.592;8.662;2024-01-16T01:41:30;99365.44;;;-1.26;84.70
11041;BME280;5573;49.592;8.662;2024-01-16T01:43:59;99355.69;;;-1.24;83.92
11041;BME280;5573;49.592;8.662;2024-01-16T01:46:27;99369.41;;;-1.22;83.84
11041;BME280;5573;49.592;8.662;2024-01-16T01:48:57;99366.78;;;-1.39;84.82
11041;BME280;5573;49.592;8.662;2024-01-16T01:51:24;99364.09;;;-1.30;84.17
11041;BME280;5573;49.592;8.662;2024-01-16T01:53:52;99377.94;;;-1.20;84.68
11041;BME280;5573;49.592;8.662;2024-01-16T01:56:21;99378.47;;;-1.16;83.36
11041;BME280;5573;49.592;8.662;2024-01-16T01:58:53;99381.22;;;-1.18;83.71
11041;BME280;5573;49.592;8.662;2024-01-16T02:01:23;99389.34;;;-1.21;83.67
11041;BME280;5573;49.592;8.662;2024-01-16T02:03:52;99395.44;;;-1.03;82.80
11041;BME280;5573;49.592;8.662;2024-01-16T02:06:21;99381.59;;;-1.13;83.06
11041;BME280;5573;49.592;8.662;2024-01-16T02:08:50;99395.19;;;-1.09;83.19
11041;BME280;5573;49.592;8.662;2024-01-16T02:11:18;99406.75;;;-1.12;83.37
11041;BME280;5573;49.592;8.662;2024-01-16T02:13:46;99409.00;;;-1.17;83.32
11041;BME280;5573;49.592;8.662;2024-01-16T02:16:18;99410.66;;;-1.16;83.47
11041;BME280;5573;49.592;8.662;2024-01-16T02:18:46;99394.44;;;-1.19;83.05
11041;BME280;5573;49.592;8.662;2024-01-16T02:21:18;99401.81;;;-1.15;83.89
11041;BME280;5573;49.592;8.662;2024-01-16T02:23:49;99409.00;;;-1.17;83.93
11041;BME280;5573;49.592;8.662;2024-01-16T02:26:17;99404.91;;;-1.19;83.72
11041;BME280;5573;49.592;8.662;2024-01-16T02:28:45;99393.22;;;-1.25;83.42
11041;BME280;5573;49.592;8.662;2024-01-16T02:31:13;99407.94;;;-1.24;84.15
11041;BME280;5573;49.592;8.662;2024-01-16T02:33:43;99407.66;;;-1.21;84.39
11041;BME280;5573;49.592;8.662;2024-01-16T02:36:11;99409.31;;;-1.20;84.04
11041;BME280;5573;49.592;8.662;2024-01-16T02:38:39;99398.75;;;-1.28;83.64
11041;BME280;5573;49.592;8.662;2024-01-16T02:41:13;99400.53;;;-1.28;84.51
11041;BME280;5573;49.592;8.662;2024-01-16T02:43:41;99392.56;;;-1.27;84.38
11041;BME280;5573;49.592;8.662;2024-01-16T02:46:09;99391.47;;;-1.34;84.90
11041;BME280;5573;49.592;8.662;2024-01-16T02:48:37;99382.56;;;-1.14;84.04
11041;BME280;5573;49.592;8.662;2024-01-16T02:51:05;99387.94;;;-1.15;83.52
11041;BME280;5573;49.592;8.662;2024-01-16T02:53:33;99393.88;;;-1.23;84.18
11041;BME280;5573;49.592;8.662;2024-01-16T02:56:01;99387.69;;;-1.22;84.32
11041;BME280;5573;49.592;8.662;2024-01-16T02:58:30;99393.22;;;-1.25;84.09
11041;BME280;5573;49.592;8.662;2024-01-16T03:00:58;99397.59;;;-1.16;84.24
11041;BME280;5573;49.592;8.662;2024-01-16T03:03:26;99389.16;;;-1.10;83.80
11041;BME280;5573;49.592;8.662;2024-01-16T03:05:54;99393.09;;;-1.23;84.31
11041;BME280;5573;49.592;8.662;2024-01-16T03:08:23;99399.50;;;-1.18;83.81
11041;BME280;5573;49.592;8.662;2024-01-16T03:10:51;99405.44;;;-1.16;84.32
11041;BME280;5573;49.592;8.662;2024-01-16T03:13:18;99394.47;;;-1.29;84.26
11041;BME280;5573;49.592;8.662;2024-01-16T03:15:48;99402.72;;;-1.24;84.48
11041;BME280;5573;49.592;8.662;2024-01-16T03:18:15;99400.47;;;-1.19;83.72
11041;BME280;5573;49.592;8.662;2024-01-16T03:20:43;99399.59;;;-1.10;83.60
11041;BME280;5573;49.592;8.662;2024-01-16T03:23:11;97900.84;;;-142.40;84.22
11041;BME280;5573;49.592;8.662;2024-01-16T03:25:39;99406.19;;;-1.06;83.79
11041;BME280;5573;49.592;8.662;2024-01-16T03:28:07;99393.69;;;-1.12;83.53
11041;BME280;5573;49.592;8.662;2024-01-16T03:30:37;99387.78;;;-1.14;84.32
11041;BME280;5573;49.592;8.662;2024-01-16T03:33:06;99397.50;;;-1.24;85.61
11041;BME280;5573;49.592;8.662;2024-01-16T03:35:34;99396.59;;;-1.15;84.65
11041;BME280;5573;49.592;8.662;2024-01-16T03:38:02;99399.72;;;-1.11;83.93
11041;BME280;5573;49.592;8.662;2024-01-16T03:40:30;99400.47;;;-1.19;84.94
11041;BME280;5573;49.592;8.662;2024-01-16T03:43:01;99400.66;;;-1.03;83.02
11041;BME280;5573;49.592;8.662;2024-01-16T03:45:29;99404.75;;;-1.00;83.03
11041;BME280;5573;49.592;8.662;2024-01-16T03:47:57;99403.25;;;-1.20;83.72
11041;BME280;5573;49.592;8.662;2024-01-16T03:50:26;99406.19;;;-1.33;85.55
11041;BME280;5573;49.592;8.662;2024-01-16T03:52:54;99408.47;;;-1.20;84.20
11041;BME280;5573;49.592;8.662;2024-01-16T03:55:22;99407.16;;;-1.34;84.60
11041;BME280;5573;49.592;8.662;2024-01-16T03:57:50;99375.75;;;-1.52;84.21
11041;BME280;5573;49.592;8.662;2024-01-16T04:00:18;99347.28;;;-1.72;84.45
11041;BME280;5573;49.592;8.662;2024-01-16T04:02:45;99401.97;;;-1.43;85.03
11041;BME280;5573;49.592;8.662;2024-01-16T04:05:14;99400.09;;;-1.51;85.56
11041;BME280;5573;49.592;8.662;2024-01-16T04:07:43;99401.16;;;-1.44;84.81
11041;BME280;5573;49.592;8.662;2024-01-16T04:10:11;99402.69;;;-1.51;85.04
11041;BME280;5573;49.592;8.662;2024-01-16T04:12:39;99396.28;;;-1.57;84.92
11041;BME280;5573;49.592;8.662;2024-01-16T04:15:07;99401.75;;;-1.60;85.57
11041;BME280;5573;49.592;8.662;2024-01-16T04:17:35;99399.88;;;-1.67;85.73
11041;BME280;5573;49.592;8.662;2024-01-16T04:20:05;99407.22;;;-1.80;86.35
11041;BME280;5573;49.592;8.662;2024-01-16T04:22:33;99400.22;;;-1.80;87.00
11041;BME280;5573;49.592;8.662;2024-01-16T04:25:04;99406.38;;;-1.71;86.42
11041;BME280;5573;49.592;8.662;2024-01-16T04:27:32;99397.56;;;-1.70;86.62
11041;BME280;5573;49.592;8.662;2024-01-16T04:30:00;99402.81;;;-1.80;86.91
11041;BME280;5573;49.592;8.662;2024-01-16T04:32:28;99400.50;;;-1.83;87.48
11041;BME280;5573;49.592;8.662;2024-01-16T04:34:56;99399.19;;;-1.69;87.28
11041;BME280;5573;49.592;8.662;2024-01-16T04:37:24;99394.41;;;-1.74;87.39
11041;BME280;5573;49.592;8.662;2024-01-16T04:39:51;99394.41;;;-1.74;87.76
11041;BME280;5573;49.592;8.662;2024-01-16T04:42:22;99396.72;;;-1.71;87.61
11041;BME280;5573;49.592;8.662;2024-01-16T04:44:49;99402.66;;;-1.78;87.44
11041;BME280;5573;49.592;8.662;2024-01-16T04:47:18;99393.38;;;-1.90;88.52
11041;BME280;5573;49.592;8.662;2024-01-16T04:49:46;99392.44;;;-1.99;89.13
11041;BME280;5573;49.592;8.662;2024-01-16T04:52:14;99403.97;;;-2.11;90.50
11041;BME280;5573;49.592;8.662;2024-01-16T04:54:42;99391.78;;;-2.20;89.62
11041;BME280;5573;49.592;8.662;2024-01-16T04:57:12;61852.47;;;-142.40;100.00
11041;BME280;5573;49.592;8.662;2024-01-16T04:59:41;61852.47;;;-142.40;100.00
11041;BME280;5573;49.592;8.662;2024-01-16T05:02:09;61852.47;;;-142.40;100.00
11041;BME280;5573;49.592;8.662;2024-01-16T05:04:37;61852.47;;;-142.40;100.00
11041;BME280;5573;49.592;8.662;2024-01-16T05:07:05;61852.47;;;-142.40;100.00
11041;BME280;5573;49.592;8.662;2024-01-16T05:09:33;61852.47;;;-142.40;100.00
11041;BME280;5573;49.592;8.662;2024-01-16T05:12:01;61852.47;;;-142.40;100.00
11041;BME280;5573;49.592;8.662;2024-01-16T05:14:29;61852.47;;;-142.40;100.00
11041;BME280;5573;49.592;8.662;2024-01-16T05:16:58;61852.47;;;-142.40;100.00
11041;BME280;5573;49.592;8.662;2024-01-16T05:19:26;61852.47;;;-142.40;100.00
11041;BME280;5573;49.592;8.662;2024-01-16T05:21:53;61852.47;;;-142.40;100.00
11041;BME280;5573;49.592;8.662;2024-01-16T05:24:21;61852.47;;;-142.40;100.00
11041;BME280;5573;49.592;8.662;2024-01-16T05:26:49;61852.47;;;-142.40;100.00
11041;BME280;5573;49.592;8.662;2024-01-16T05:29:18;61852.47;;;-142.40;100.00
11041;BME280;5573;49.592;8.662;2024-01-16T05:31:46;61852.47;;;-142.40;100.00
11041;BME280;5573;49.592;8.662;2024-01-16T05:34:16;61852.47;;;-142.40;100.00
11041;BME280;5573;49.592;8.662;2024-01-16T05:36:44;61852.47;;;-142.40;100.00
11041;BME280;5573;49.592;8.662;2024-01-16T05:39:11;61852.47;;;-142.40;100.00
11041;BME280;5573;49.592;8.662;2024-01-16T05:41:40;61852.47;;;-142.40;100.00
11041;BME280;5573;49.592;8.662;2024-01-16T05:44:09;99399.88;;;-2.23;90.25
11041;BME280;5573;49.592;8.662;2024-01-16T05:46:37;99347.53;;;-2.68;90.31
11041;BME280;5573;49.592;8.662;2024-01-16T05:49:05;99352.59;;;-2.57;90.12
11041;BME280;5573;49.592;8.662;2024-01-16T05:51:34;99334.78;;;-2.90;90.14
11041;BME280;5573;49.592;8.662;2024-01-16T05:54:02;99353.97;;;-2.72;90.39
11041;BME280;5573;49.592;8.662;2024-01-16T05:56:31;99346.53;;;-2.86;90.42
11041;BME280;5573;49.592;8.662;2024-01-16T05:59:00;99346.84;;;-2.99;90.52
11041;BME280;5573;49.592;8.662;2024-01-16T06:01:28;99342.97;;;-3.24;90.95
11041;BME280;5573;49.592;8.662;2024-01-16T06:03:56;99344.22;;;-3.28;91.48
11041;BME280;5573;49.592;8.662;2024-01-16T06:06:23;99344.72;;;-3.44;91.89
11041;BME280;5573;49.592;8.662;2024-01-16T06:08:53;99352.25;;;-3.50;92.14
11041;BME280;5573;49.592;8.662;2024-01-16T06:11:29;99357.44;;;-3.50;92.55
11041;BME280;5573;49.592;8.662;2024-01-16T06:13:57;99357.38;;;-3.69;92.75
11041;BME280;5573;49.592;8.662;2024-01-16T06:16:25;99353.28;;;-3.62;92.77
11041;BME280;5573;49.592;8.662;2024-01-16T06:18:53;99350.31;;;-3.58;93.13
11041;BME280;5573;49.592;8.662;2024-01-16T06:21:21;99347.25;;;-3.72;93.13
11041;BME280;5573;49.592;8.662;2024-01-16T06:23:50;99337.88;;;-3.84;93.28
11041;BME280;5573;49.592;8.662;2024-01-16T06:26:19;99349.41;;;-3.77;93.35
11041;BME280;5573;49.592;8.662;2024-01-16T06:28:48;99343.66;;;-3.81;92.94
11041;BME280;5573;49.592;8.662;2024-01-16T06:31:16;99347.38;;;-3.74;92.51
11041;BME280;5573;49.592;8.662;2024-01-16T06:33:43;99348.47;;;-3.76;93.30
11041;BME280;5573;49.592;8.662;2024-01-16T06:36:11;99341.34;;;-3.74;93.46
11041;BME280;5573;49.592;8.662;2024-01-16T06:38:39;99345.88;;;-3.67;93.37
11041;BME280;5573;49.592;8.662;2024-01-16T06:41:07;99344.88;;;-3.35;93.42
11041;BME280;5573;49.592;8.662;2024-01-16T06:43:37;99351.16;;;-3.38;92.46
11041;BME280;5573;49.592;8.662;2024-01-16T06:46:06;99340.63;;;-3.36;92.78
11041;BME280;5573;49.592;8.662;2024-01-16T06:48:34;99343.53;;;-2.82;91.38
11041;BME280;5573;49.592;8.662;2024-01-16T06:51:04;99339.13;;;-3.01;90.70
11041;BME280;5573;49.592;8.662;2024-01-16T06:53:31;99338.34;;;-2.72;90.44
11041;BME280;5573;49.592;8.662;2024-01-16T06:55:59;99342.56;;;-2.71;90.32
11041;BME280;5573;49.592;8.662;2024-01-16T06:58:27;99340.81;;;-2.80;90.11
11041;BME280;5573;49.592;8.662;2024-01-16T07:00:56;99336.13;;;-2.86;90.25
11041;BME280;5573;49.592;8.662;2024-01-16T07:03:24;99331.91;;;-2.87;90.84
11041;BME280;5573;49.592;8.662;2024-01-16T07:05:52;99332.69;;;-2.77;90.44
11041;BME280;5573;49.592;8.662;2024-01-16T07:08:20;99349.31;;;-2.69;89.76
11041;BME280;5573;49.592;8.662;2024-01-16T07:10:48;99340.63;;;-2.60;89.32
11041;BME280;5573;49.592;8.662;2024-01-16T07:13:15;99346.00;;;-2.52;88.81
11041;BME280;5573;49.592;8.662;2024-01-16T07:15:43;99332.16;;;-2.62;89.00
11041;BME280;5573;49.592;8.662;2024-01-16T07:18:12;99334.06;;;-2.64;89.54
11041;BME280;5573;49.592;8.662;2024-01-16T07:20:40;99341.03;;;-2.64;89.06
11041;BME280;5573;49.592;8.662;2024-01-16T07:23:08;99332.84;;;-2.69;88.74
11041;BME280;5573;49.592;8.662;2024-01-16T07:25:36;99344.34;;;-2.62;88.62
11041;BME280;5573;49.592;8.662;2024-01-16T07:28:04;99341.50;;;-2.69;89.24
11041;BME280;5573;49.592;8.662;2024-01-16T07:30:32;99342.19;;;-2.76;89.65
11041;BME280;5573;49.592;8.662;2024-01-16T07:32:59;99352.84;;;-2.60;88.93
11041;BME280;5573;49.592;8.662;2024-01-16T07:35:29;99346.16;;;-2.53;89.53
11041;BME280;5573;49.592;8.662;2024-01-16T07:37:57;99348.97;;;-2.37;88.53
11041;BME280;5573;49.592;8.662;2024-01-16T07:40:27;99344.84;;;-2.30;88.05
11041;BME280;5573;49.592;8.662;2024-01-16T07:42:55;99348.16;;;-2.37;87.92
11041;BME280;5573;49.592;8.662;2024-01-16T07:45:24;99355.28;;;-2.20;87.05
11041;BME280;5573;49.592;8.662;2024-01-16T07:47:52;99346.75;;;-2.13;87.18
11041;BME280;5573;49.592;8.662;2024-01-16T07:50:19;99351.41;;;-2.16;87.63
11041;BME280;5573;49.592;8.662;2024-01-16T07:52:48;99348.72;;;-1.97;86.66
11041;BME280;5573;49.592;8.662;2024-01-16T07:55:17;99360.28;;;-2.00;86.38
11041;BME280;5573;49.592;8.662;2024-01-16T07:57:49;99361.13;;;-1.99;86.53
11041;BME280;5573;49.592;8.662;2024-01-16T08:00:18;99355.72;;;-1.88;84.83
11041;BME280;5573;49.592;8.662;2024-01-16T08:02:46;99362.16;;;-1.82;85.22
11041;BME280;5573;49.592;8.662;2024-01-16T08:05:14;99361.00;;;-1.70;84.09
11041;BME280;5573;49.592;8.662;2024-01-16T08:07:42;99362.66;;;-1.69;83.61
11041;BME280;5573;49.592;8.662;2024-01-16T08:10:11;99364.31;;;-1.68;84.22
11041;BME280;5573;49.592;8.662;2024-01-16T08:12:43;99353.06;;;-1.51;83.98
11041;BME280;5573;49.592;8.662;2024-01-16T08:15:11;99345.38;;;-1.53;82.88
11041;BME280;5573;49.592;8.662;2024-01-16T08:17:38;99348.28;;;-1.56;82.99
11041;BME280;5573;49.592;8.662;2024-01-16T08:20:09;99342.63;;;-1.51;83.52
11041;BME280;5573;49.592;8.662;2024-01-16T08:22:36;99319.22;;;-1.70;82.95
11041;BME280;5573;49.592;8.662;2024-01-16T08:25:05;99363.03;;;-1.37;82.18
11041;BME280;5573;49.592;8.662;2024-01-16T08:27:34;99355.88;;;-1.35;82.78
11041;BME280;5573;49.592;8.662;2024-01-16T08:30:05;99374.22;;;-1.44;82.35
11041;BME280;5573;49.592;8.662;2024-01-16T08:32:33;99378.53;;;-1.53;82.61
11041;BME280;5573;49.592;8.662;2024-01-16T08:35:01;99375.72;;;-1.42;82.76
11041;BME280;5573;49.592;8.662;2024-01-16T08:37:29;99377.53;;;-1.52;82.68
11041;BME280;5573;49.592;8.662;2024-01-16T08:39:57;99378.59;;;-1.45;82.34
11041;BME280;5573;49.592;8.662;2024-01-16T08:42:25;99391.25;;;-1.40;82.98
11041;BME280;5573;49.592;8.662;2024-01-16T08:44:54;99397.88;;;-1.46;83.12
11041;BME280;5573;49.592;8.662;2024-01-16T08:47:22;99401.97;;;-1.43;83.69
11041;BME280;5573;49.592;8.662;2024-01-16T08:49:50;99405.47;;;-1.25;82.48
11041;BME280;5573;49.592;8.662;2024-01-16T08:52:18;99411.13;;;-1.30;82.85
11041;BME280;5573;49.592;8.662;2024-01-16T08:54:47;99410.13;;;-1.19;82.30
11041;BME280;5573;49.592;8.662;2024-01-16T08:57:15;99405.13;;;-1.13;81.54
11041;BME280;5573;49.592;8.662;2024-01-16T08:59:44;99416.16;;;-1.19;81.93
11041;BME280;5573;49.592;8.662;2024-01-16T09:02:13;99410.19;;;-1.11;82.48
11041;BME280;5573;49.592;8.662;2024-01-16T09:04:41;99405.50;;;-1.08;81.61
11041;BME280;5573;49.592;8.662;2024-01-16T09:07:09;99416.94;;;-1.09;81.98
11041;BME280;5573;49.592;8.662;2024-01-16T09:09:37;99403.16;;;-1.28;82.21
11041;BME280;5573;49.592;8.662;2024-01-16T09:12:05;99414.97;;;-1.24;82.89
11041;BME280;5573;49.592;8.662;2024-01-16T09:14:33;99419.38;;;-1.07;82.15
11041;BME280;5573;49.592;8.662;2024-01-16T09:17:01;99416.88;;;-0.99;80.83
11041;BME280;5573;49.592;8.662;2024-01-16T09:19:30;99421.56;;;-1.03;81.49
11041;BME280;5573;49.592;8.662;2024-01-16T09:21:58;99419.34;;;-0.98;81.57
11041;BME280;5573;49.592;8.662;2024-01-16T09:24:26;99429.94;;;-0.99;81.59
11041;BME280;5573;49.592;8.662;2024-01-16T09:26:54;99426.28;;;-1.06;82.07
11041;BME280;5573;49.592;8.662;2024-01-16T09:29:22;99426.56;;;-1.09;82.02
11041;BME280;5573;49.592;8.662;2024-01-16T09:31:51;99428.78;;;-1.14;81.73
11041;BME280;5573;49.592;8.662;2024-01-16T09:34:19;99418.09;;;-1.21;82.55
11041;BME280;5573;49.592;8.662;2024-01-16T09:36:48;99427.63;;;-1.29;82.80
11041;BME280;5573;49.592;8.662;2024-01-16T09:39:16;99409.19;;;-1.28;82.96
11041;BME280;5573;49.592;8.662;2024-01-16T09:41:45;99413.66;;;-1.38;83.94
11041;BME280;5573;49.592;8.662;2024-01-16T09:44:13;99421.44;;;-1.28;83.73
11041;BME280;5573;49.592;8.662;2024-01-16T09:46:44;99416.34;;;-1.30;83.70
11041;BME280;5573;49.592;8.662;2024-01-16T09:49:14;99418.53;;;-1.25;82.82
11041;BME280;5573;49.592;8.662;2024-01-16T09:51:43;99416.78;;;-1.07;82.09
11041;BME280;5573;49.592;8.662;2024-01-16T09:54:12;99412.47;;;-0.99;83.13
11041;BME280;5573;49.592;8.662;2024-01-16T09:56:42;99415.63;;;-0.77;81.20
11041;BME280;5573;49.592;8.662;2024-01-16T09:59:14;99416.09;;;-0.64;80.91
11041;BME280;5573;49.592;8.662;2024-01-16T10:01:45;99408.31;;;-0.56;80.46
11041;BME280;5573;49.592;8.662;2024-01-16T10:04:13;99407.50;;;-0.57;80.94
11041;BME280;5573;49.592;8.662;2024-01-16T10:06:41;99408.97;;;-0.54;79.72
11041;BME280;5573;49.592;8.662;2024-01-16T10:09:14;99413.03;;;-0.60;79.79
11041;BME280;5573;49.592;8.662;2024-01-16T10:11:42;99403.00;;;-0.64;80.86
11041;BME280;5573;49.592;8.662;2024-01-16T10:14:10;99411.38;;;-0.61;79.47
11041;BME280;5573;49.592;8.662;2024-01-16T10:16:58;99405.19;;;-0.60;80.45
11041;BME280;5573;49.592;8.662;2024-01-16T10:19:27;99417.50;;;-0.52;79.16
11041;BME280;5573;49.592;8.662;2024-01-16T10:22:11;99413.97;;;-0.43;79.19
11041;BME280;5573;49.592;8.662;2024-01-16T10:24:41;99410.94;;;-0.56;78.95
11041;BME280;5573;49.592;8.662;2024-01-16T10:27:09;99412.94;;;-0.50;79.73
11041;BME280;5573;49.592;8.662;2024-01-16T10:29:54;99406.78;;;-0.41;79.49
11041;BME280;5573;49.592;8.662;2024-01-16T10:32:28;99410.00;;;-0.29;78.05
11041;BME280;5573;49.592;8.662;2024-01-16T10:35:04;99422.69;;;-0.17;79.00
11041;BME280;5573;49.592;8.662;2024-01-16T10:37:43;99418.69;;;-0.03;77.63
11041;BME280;5573;49.592;8.662;2024-01-16T10:40:15;99404.00;;;-0.04;77.34
11041;BME280;5573;49.592;8.662;2024-01-16T10:42:57;99408.41;;;-0.05;77.15
11041;BME280;5573;49.592;8.662;2024-01-16T10:45:25;99396.59;;;-0.09;77.12
11041;BME280;5573;49.592;8.662;2024-01-16T10:48:00;99376.16;;;-0.05;76.30
11041;BME280;5573;49.592;8.662;2024-01-16T10:50:29;99400.88;;;0.00;75.74
11041;BME280;5573;49.592;8.662;2024-01-16T10:52:59;99388.38;;;-0.14;76.98
11041;BME280;5573;49.592;8.662;2024-01-16T10:55:29;99384.97;;;0.20;76.95
11041;BME280;5573;49.592;8.662;2024-01-16T10:57:58;99376.25;;;-0.15;76.26
11041;BME280;5573;49.592;8.662;2024-01-16T11:00:28;99356.13;;;-0.14;76.74
11041;BME280;5573;49.592;8.662;2024-01-16T11:02:59;99375.84;;;-0.02;76.58
11041;BME280;5573;49.592;8.662;2024-01-16T11:05:31;99376.41;;;0.10;77.18
11041;BME280;5573;49.592;8.662;2024-01-16T11:08:00;99369.38;;;0.10;75.13
11041;BME280;5573;49.592;8.662;2024-01-16T11:10:32;99364.41;;;-0.01;75.65
11041;BME280;5573;49.592;8.662;2024-01-16T11:13:01;99361.66;;;0.09;75.55
11041;BME280;5573;49.592;8.662;2024-01-16T11:15:31;99351.41;;;-0.11;75.85
11041;BME280;5573;49.592;8.662;2024-01-16T11:17:59;99359.75;;;-0.15;76.42
11041;BME280;5573;49.592;8.662;2024-01-16T11:20:28;99357.25;;;-0.17;75.61
11041;BME280;5573;49.592;8.662;2024-01-16T11:23:16;99361.34;;;-0.40;77.39
11041;BME280;5573;49.592;8.662;2024-01-16T11:25:45;99350.81;;;-0.48;77.22
11041;BME280;5573;49.592;8.662;2024-01-16T11:28:13;99341.53;;;-0.42;76.98
11041;BME280;5573;49.592;8.662;2024-01-16T11:30:42;99340.84;;;-0.27;76.70
11041;BME280;5573;49.592;8.662;2024-01-16T11:33:44;99330.63;;;-0.38;77.01
11041;BME280;5573;49.592;8.662;2024-01-16T11:36:47;99327.00;;;-0.19;75.92
11041;BME280;5573;49.592;8.662;2024-01-16T11:39:17;99318.19;;;-0.10;76.45
11041;BME280;5573;49.592;8.662;2024-01-16T11:41:55;99316.81;;;0.04;75.94
11041;BME280;5573;49.592;8.662;2024-01-16T11:44:37;99310.25;;;0.08;74.79
11041;BME280;5573;49.592;8.662;2024-01-16T11:47:05;99305.72;;;0.10;75.47
11041;BME280;5573;49.592;8.662;2024-01-16T11:49:34;99307.66;;;0.08;74.67
11041;BME280;5573;49.592;8.662;2024-01-16T11:52:03;99316.81;;;0.04;76.51
11041;BME280;5573;49.592;8.662;2024-01-16T11:54:32;99297.66;;;0.03;75.29
11041;BME280;5573;49.592;8.662;2024-01-16T11:57:19;99286.13;;;-0.12;75.00
11041;BME280;5573;49.592;8.662;2024-01-16T11:59:58;99308.81;;;-0.21;75.87
11041;BME280;5573;49.592;8.662;2024-01-16T12:02:37;99306.78;;;-0.35;75.67
11041;BME280;5573;49.592;8.662;2024-01-16T12:05:06;99304.22;;;-0.44;76.10
11041;BME280;5573;49.592;8.662;2024-01-16T12:07:46;99300.13;;;-0.47;76.78
11041;BME280;5573;49.592;8.662;2024-01-16T12:10:16;99299.75;;;-0.52;77.18
11041;BME280;5573;49.592;8.662;2024-01-16T12:12:48;99254.53;;;-0.70;77.15
11041;BME280;5573;49.592;8.662;2024-01-16T12:15:17;99292.22;;;-0.29;77.04
11041;BME280;5573;49.592;8.662;2024-01-16T12:17:56;99289.72;;;-0.13;75.17
11041;BME280;5573;49.592;8.662;2024-01-16T12:20:26;99278.97;;;-0.02;76.05
11041;BME280;5573;49.592;8.662;2024-01-16T12:22:57;99270.72;;;0.19;75.32
11041;BME280;5573;49.592;8.662;2024-01-16T12:25:27;99270.75;;;0.27;75.30
11041;BME280;5573;49.592;8.662;2024-01-16T12:28:20;99273.25;;;0.36;74.63
11041;BME280;5573;49.592;8.662;2024-01-16T12:30:59;99261.28;;;0.42;73.15
11041;BME280;5573;49.592;8.662;2024-01-16T12:33:28;99269.53;;;0.55;74.40
11041;BME280;5573;49.592;8.662;2024-01-16T12:36:02;99244.28;;;0.46;74.06
11041;BME280;5573;49.592;8.662;2024-01-16T12:38:31;99266.72;;;0.57;72.84
11041;BME280;5573;49.592;8.662;2024-01-16T12:40:59;99257.09;;;0.65;73.45
11041;BME280;5573;49.592;8.662;2024-01-16T12:43:31;99245.31;;;0.69;72.66
11041;BME280;5573;49.592;8.662;2024-01-16T12:45:59;99236.94;;;0.66;72.82
11041;BME280;5573;49.592;8.662;2024-01-16T12:48:28;99244.00;;;0.73;73.17
11041;BME280;5573;49.592;8.662;2024-01-16T12:50:58;99233.84;;;0.78;73.06
11041;BME280;5573;49.592;8.662;2024-01-16T12:53:27;99228.28;;;0.73;72.40
11041;BME280;5573;49.592;8.662;2024-01-16T12:55:58;99237.47;;;0.77;72.36
11041;BME280;5573;49.592;8.662;2024-01-16T12:58:33;99239.75;;;0.88;71.42
11041;BME280;5573;49.592;8.662;2024-01-16T13:01:23;99235.47;;;0.79;72.07
11041;BME280;5573;49.592;8.662;2024-01-16T13:04:05;99215.19;;;0.73;72.30
11041;BME280;5573;49.592;8.662;2024-01-16T13:06:33;99223.84;;;0.98;73.13
11041;BME280;5573;49.592;8.662;2024-01-16T13:09:06;99217.47;;;1.01;71.37
11041;BME280;5573;49.592;8.662;2024-01-16T13:11:51;99222.41;;;1.04;69.89
11041;BME280;5573;49.592;8.662;2024-01-16T13:14:24;99220.56;;;1.12;70.82
11041;BME280;5573;49.592;8.662;2024-01-16T13:16:53;99220.75;;;1.19;70.07
11041;BME280;5573;49.592;8.662;2024-01-16T13:19:23;99223.19;;;1.20;70.69
11041;BME280;5573;49.592;8.662;2024-01-16T13:21:52;99213.84;;;1.10;71.89